sensor_id;sensor_type;location;lat;lon;timestamp;temperature;humidity
30244;DHT22;64022;53.652;9.792;2024-02-26T00:00:52;21.80;57.90
30244;DHT22;64022;53.652;9.792;2024-02-26T00:03:21;21.80;57.90
30244;DHT22;64022;53.652;9.792;2024-02-26T00:05:47;21.80;57.90
30244;DHT22;64022;53.652;9.792;2024-02-26T00:08:12;21.70;57.80
30244;DHT22;64022;53.652;9.792;2024-02-26T00:10:39;21.80;57.90
30244;DHT22;64022;53.652;9.792;2024-02-26T00:13:04;21.80;57.90
30244;DHT22;64022;53.652;9.792;2024-02-26T00:15:31;21.80;57.90
30244;DHT22;64022;53.652;9.792;2024-02-26T00:17:58;21.80;57.90
30244;DHT22;64022;53.652;9.792;2024-02-26T00:20:26;21.80;57.90
30244;DHT22;64022;53.652;9.792;2024-02-26T00:22:52;21.80;57.90
30244;DHT22;64022;53.652;9.792;2024-02-26T00:25:19;21.80;57.90
30244;DHT22;64022;53.652;9.792;2024-02-26T00:27:46;21.80;57.90
30244;DHT22;64022;53.652;9.792;2024-02-26T00:30:14;21.80;57.90
30244;DHT22;64022;53.652;9.792;2024-02-26T00:32:40;21.80;57.90
30244;DHT22;64022;53.652;9.792;2024-02-26T00:35:07;21.80;57.90
30244;DHT22;64022;53.652;9.792;2024-02-26T00:37:36;21.80;58.00
30244;DHT22;64022;53.652;9.792;2024-02-26T00:40:02;21.80;57.90
30244;DHT22;64022;53.652;9.792;2024-02-26T00:42:29;21.80;57.90
30244;DHT22;64022;53.652;9.792;2024-02-26T00:44:56;21.80;58.00
30244;DHT22;64022;53.652;9.792;2024-02-26T00:47:22;21.80;57.90
30244;DHT22;64022;53.652;9.792;2024-02-26T00:49:49;21.80;58.00
30244;DHT22;64022;53.652;9.792;2024-02-26T00:52:17;21.80;58.00
30244;DHT22;64022;53.652;9.792;2024-02-26T00:54:43;21.80;58.00
30244;DHT22;64022;53.652;9.792;2024-02-26T00:57:10;21.80;58.00
30244;DHT22;64022;53.652;9.792;2024-02-26T00:59:36;21.80;58.00
30244;DHT22;64022;53.652;9.792;2024-02-26T01:02:06;21.80;58.00
30244;DHT22;64022;53.652;9.792;2024-02-26T01:04:37;21.80;58.00
30244;DHT22;64022;53.652;9.792;2024-02-26T01:07:03;21.80;58.00
30244;DHT22;64022;53.652;9.792;2024-02-26T01:09:30;21.90;58.00
30244;DHT22;64022;53.652;9.792;2024-02-26T01:11:56;21.80;57.90
30244;DHT22;64022;53.652;9.792;2024-02-26T01:14:22;21.80;57.90
30244;DHT22;64022;53.652;9.792;2024-02-26T01:16:50;21.80;57.90
30244;DHT22;64022;53.652;9.792;2024-02-26T01:19:18;21.80;57.90
30244;DHT22;64022;53.652;9.792;2024-02-26T01:21:44;21.80;57.90
30244;DHT22;64022;53.652;9.792;2024-02-26T01:24:10;21.80;57.90
30244;DHT22;64022;53.652;9.792;2024-02-26T01:26:38;21.80;58.00
30244;DHT22;64022;53.652;9.792;2024-02-26T01:29:04;21.80;58.00
30244;DHT22;64022;53.652;9.792;2024-02-26T01:31:32;21.80;58.00
30244;DHT22;64022;53.652;9.792;2024-02-26T01:34:00;21.80;58.00
30244;DHT22;64022;53.652;9.792;2024-02-26T01:36:26;21.80;57.90
30244;DHT22;64022;53.652;9.792;2024-02-26T01:38:53;21.80;57.90
30244;DHT22;64022;53.652;9.792;2024-02-26T01:41:19;21.80;57.90
30244;DHT22;64022;53.652;9.792;2024-02-26T01:43:47;21.80;57.90
30244;DHT22;64022;53.652;9.792;2024-02-26T01:46:15;21.80;57.90
30244;DHT22;64022;53.652;9.792;2024-02-26T01:48:42;21.80;57.90
30244;DHT22;64022;53.652;9.792;2024-02-26T01:51:08;21.80;57.90
30244;DHT22;64022;53.652;9.792;2024-02-26T01:53:36;21.80;57.90
30244;DHT22;64022;53.652;9.792;2024-02-26T01:56:02;21.80;57.90
30244;DHT22;64022;53.652;9.792;2024-02-26T01:58:29;21.80;57.90
30244;DHT22;64022;53.652;9.792;2024-02-26T02:00:57;21.80;57.90
30244;DHT22;64022;53.652;9.792;2024-02-26T02:03:25;21.80;57.90
30244;DHT22;64022;53.652;9.792;2024-02-26T02:05:51;21.80;57.90
30244;DHT22;64022;53.652;9.792;2024-02-26T02:08:17;21.80;57.90
30244;DHT22;64022;53.652;9.792;2024-02-26T02:10:44;21.80;57.90
30244;DHT22;64022;53.652;9.792;2024-02-26T02:13:14;21.80;57.90
30244;DHT22;64022;53.652;9.792;2024-02-26T02:15:41;21.80;57.90
30244;DHT22;64022;53.652;9.792;2024-02-26T02:18:08;21.80;57.90
30244;DHT22;64022;53.652;9.792;2024-02-26T02:20:35;21.80;57.90
30244;DHT22;64022;53.652;9.792;2024-02-26T02:23:05;21.80;57.90
30244;DHT22;64022;53.652;9.792;2024-02-26T02:25:32;21.80;57.90
30244;DHT22;64022;53.652;9.792;2024-02-26T02:27:58;21.80;57.90
30244;DHT22;64022;53.652;9.792;2024-02-26T02:30:25;21.80;57.90
30244;DHT22;64022;53.652;9.792;2024-02-26T02:32:52;21.80;57.90
30244;DHT22;64022;53.652;9.792;2024-02-26T02:35:20;21.80;57.90
30244;DHT22;64022;53.652;9.792;2024-02-26T02:37:52;21.80;57.90
30244;DHT22;64022;53.652;9.792;2024-02-26T02:40:20;21.80;58.00
30244;DHT22;64022;53.652;9.792;2024-02-26T02:42:46;21.80;58.00
30244;DHT22;64022;53.652;9.792;2024-02-26T02:45:16;21.80;58.00
30244;DHT22;64022;53.652;9.792;2024-02-26T02:47:44;21.80;58.00
30244;DHT22;64022;53.652;9.792;2024-02-26T02:50:12;21.80;57.90
30244;DHT22;64022;53.652;9.792;2024-02-26T02:52:39;21.80;57.90
30244;DHT22;64022;53.652;9.792;2024-02-26T02:55:13;21.80;57.90
30244;DHT22;64022;53.652;9.792;2024-02-26T02:57:40;21.80;58.00
30244;DHT22;64022;53.652;9.792;2024-02-26T03:00:09;21.80;57.90
30244;DHT22;64022;53.652;9.792;2024-02-26T03:02:40;21.80;57.90
30244;DHT22;64022;53.652;9.792;2024-02-26T03:05:07;21.80;57.90
30244;DHT22;64022;53.652;9.792;2024-02-26T03:07:34;21.80;57.90
30244;DHT22;64022;53.652;9.792;2024-02-26T03:10:02;21.80;58.00
30244;DHT22;64022;53.652;9.792;2024-02-26T03:12:29;21.80;57.90
30244;DHT22;64022;53.652;9.792;2024-02-26T03:14:55;21.80;57.90
30244;DHT22;64022;53.652;9.792;2024-02-26T03:17:22;21.80;57.90
30244;DHT22;64022;53.652;9.792;2024-02-26T03:19:50;21.80;57.90
30244;DHT22;64022;53.652;9.792;2024-02-26T03:22:20;21.80;57.90
30244;DHT22;64022;53.652;9.792;2024-02-26T03:24:48;21.80;58.50
30244;DHT22;64022;53.652;9.792;2024-02-26T03:27:14;21.80;57.90
30244;DHT22;64022;53.652;9.792;2024-02-26T03:29:41;21.80;57.90
30244;DHT22;64022;53.652;9.792;2024-02-26T03:32:09;21.80;57.90
30244;DHT22;64022;53.652;9.792;2024-02-26T03:34:35;21.80;57.90
30244;DHT22;64022;53.652;9.792;2024-02-26T03:37:02;21.80;57.90
30244;DHT22;64022;53.652;9.792;2024-02-26T03:39:27;21.80;57.90
30244;DHT22;64022;53.652;9.792;2024-02-26T03:41:54;21.80;57.90
30244;DHT22;64022;53.652;9.792;2024-02-26T03:44:23;21.80;57.90
30244;DHT22;64022;53.652;9.792;2024-02-26T03:46:52;21.80;57.90
30244;DHT22;64022;53.652;9.792;2024-02-26T03:49:20;21.80;57.90
30244;DHT22;64022;53.652;9.792;2024-02-26T03:51:46;21.80;57.90
30244;DHT22;64022;53.652;9.792;2024-02-26T03:54:13;21.80;57.90
30244;DHT22;64022;53.652;9.792;2024-02-26T03:56:42;21.80;57.90
30244;DHT22;64022;53.652;9.792;2024-02-26T03:59:08;21.80;57.90
30244;DHT22;64022;53.652;9.792;2024-02-26T04:01:34;21.80;57.90
30244;DHT22;64022;53.652;9.792;2024-02-26T04:04:00;21.80;57.90
30244;DHT22;64022;53.652;9.792;2024-02-26T04:06:26;21.80;57.90
30244;DHT22;64022;53.652;9.792;2024-02-26T04:08:52;21.80;57.90
30244;DHT22;64022;53.652;9.792;2024-02-26T04:11:20;21.80;57.90
30244;DHT22;64022;53.652;9.792;2024-02-26T04:13:46;21.80;57.90
30244;DHT22;64022;53.652;9.792;2024-02-26T04:16:16;21.80;57.90
30244;DHT22;64022;53.652;9.792;2024-02-26T04:18:42;21.80;57.90
30244;DHT22;64022;53.652;9.792;2024-02-26T04:21:08;21.80;57.90
30244;DHT22;64022;53.652;9.792;2024-02-26T04:23:36;21.80;57.90
30244;DHT22;64022;53.652;9.792;2024-02-26T04:26:09;21.80;57.90
30244;DHT22;64022;53.652;9.792;2024-02-26T04:28:35;21.80;57.90
30244;DHT22;64022;53.652;9.792;2024-02-26T04:31:03;21.80;57.90
30244;DHT22;64022;53.652;9.792;2024-02-26T04:33:35;21.80;57.90
30244;DHT22;64022;53.652;9.792;2024-02-26T04:36:04;21.80;57.90
30244;DHT22;64022;53.652;9.792;2024-02-26T04:38:31;21.80;57.90
30244;DHT22;64022;53.652;9.792;2024-02-26T04:40:58;21.80;57.90
30244;DHT22;64022;53.652;9.792;2024-02-26T04:43:23;21.80;57.90
30244;DHT22;64022;53.652;9.792;2024-02-26T04:45:51;21.80;57.90
30244;DHT22;64022;53.652;9.792;2024-02-26T04:48:18;21.80;57.90
30244;DHT22;64022;53.652;9.792;2024-02-26T04:50:44;21.80;57.90
30244;DHT22;64022;53.652;9.792;2024-02-26T04:53:10;21.80;57.90
30244;DHT22;64022;53.652;9.792;2024-02-26T04:55:38;21.80;57.90
30244;DHT22;64022;53.652;9.792;2024-02-26T04:58:05;21.80;58.00
30244;DHT22;64022;53.652;9.792;2024-02-26T05:00:31;21.80;57.90
30244;DHT22;64022;53.652;9.792;2024-02-26T05:03:06;21.80;58.00
30244;DHT22;64022;53.652;9.792;2024-02-26T05:05:34;21.80;58.00
30244;DHT22;64022;53.652;9.792;2024-02-26T05:08:01;21.80;58.00
30244;DHT22;64022;53.652;9.792;2024-02-26T05:10:35;21.80;58.00
30244;DHT22;64022;53.652;9.792;2024-02-26T05:13:05;21.80;58.00
30244;DHT22;64022;53.652;9.792;2024-02-26T05:15:33;21.80;58.00
30244;DHT22;64022;53.652;9.792;2024-02-26T05:18:01;21.80;58.00
30244;DHT22;64022;53.652;9.792;2024-02-26T05:20:28;21.90;58.10
30244;DHT22;64022;53.652;9.792;2024-02-26T05:22:54;21.80;58.00
30244;DHT22;64022;53.652;9.792;2024-02-26T05:25:21;21.80;58.00
30244;DHT22;64022;53.652;9.792;2024-02-26T05:27:47;21.80;58.00
30244;DHT22;64022;53.652;9.792;2024-02-26T05:30:13;21.90;58.10
30244;DHT22;64022;53.652;9.792;2024-02-26T05:32:40;21.90;58.10
30244;DHT22;64022;53.652;9.792;2024-02-26T05:35:08;21.90;58.10
30244;DHT22;64022;53.652;9.792;2024-02-26T05:37:34;21.90;58.10
30244;DHT22;64022;53.652;9.792;2024-02-26T05:40:01;21.80;58.00
30244;DHT22;64022;53.652;9.792;2024-02-26T05:42:29;21.80;58.00
30244;DHT22;64022;53.652;9.792;2024-02-26T05:44:56;21.80;58.00
30244;DHT22;64022;53.652;9.792;2024-02-26T05:47:23;21.80;58.00
30244;DHT22;64022;53.652;9.792;2024-02-26T05:49:49;21.80;58.00
30244;DHT22;64022;53.652;9.792;2024-02-26T05:52:23;21.80;58.00
30244;DHT22;64022;53.652;9.792;2024-02-26T05:54:50;21.80;58.00
30244;DHT22;64022;53.652;9.792;2024-02-26T05:57:17;21.80;58.10
30244;DHT22;64022;53.652;9.792;2024-02-26T05:59:44;21.80;58.10
30244;DHT22;64022;53.652;9.792;2024-02-26T06:02:11;21.80;58.10
30244;DHT22;64022;53.652;9.792;2024-02-26T06:04:37;21.80;58.10
30244;DHT22;64022;53.652;9.792;2024-02-26T06:07:11;21.80;58.10
30244;DHT22;64022;53.652;9.792;2024-02-26T06:09:37;21.80;58.10
30244;DHT22;64022;53.652;9.792;2024-02-26T06:12:04;21.80;58.10
30244;DHT22;64022;53.652;9.792;2024-02-26T06:14:34;21.90;58.20
30244;DHT22;64022;53.652;9.792;2024-02-26T06:17:00;21.80;58.10
30244;DHT22;64022;53.652;9.792;2024-02-26T06:19:26;21.80;58.10
30244;DHT22;64022;53.652;9.792;2024-02-26T06:21:54;21.80;58.10
30244;DHT22;64022;53.652;9.792;2024-02-26T06:24:21;21.80;58.10
30244;DHT22;64022;53.652;9.792;2024-02-26T06:26:50;21.80;58.10
30244;DHT22;64022;53.652;9.792;2024-02-26T06:29:16;21.80;58.10
30244;DHT22;64022;53.652;9.792;2024-02-26T06:31:42;21.90;58.20
30244;DHT22;64022;53.652;9.792;2024-02-26T06:34:07;21.80;58.10
30244;DHT22;64022;53.652;9.792;2024-02-26T06:36:35;21.80;58.10
30244;DHT22;64022;53.652;9.792;2024-02-26T06:39:02;21.80;58.10
30244;DHT22;64022;53.652;9.792;2024-02-26T06:41:30;21.80;58.10
30244;DHT22;64022;53.652;9.792;2024-02-26T06:43:59;21.80;58.10
30244;DHT22;64022;53.652;9.792;2024-02-26T06:46:25;21.80;58.10
30244;DHT22;64022;53.652;9.792;2024-02-26T06:48:51;21.80;58.10
30244;DHT22;64022;53.652;9.792;2024-02-26T06:51:18;21.80;58.10
30244;DHT22;64022;53.652;9.792;2024-02-26T06:53:44;21.80;58.20
30244;DHT22;64022;53.652;9.792;2024-02-26T06:56:11;21.80;58.10
30244;DHT22;64022;53.652;9.792;2024-02-26T06:58:38;21.80;58.10
30244;DHT22;64022;53.652;9.792;2024-02-26T07:01:03;21.80;58.20
30244;DHT22;64022;53.652;9.792;2024-02-26T07:03:31;21.80;58.10
30244;DHT22;64022;53.652;9.792;2024-02-26T07:05:58;21.80;58.20
30244;DHT22;64022;53.652;9.792;2024-02-26T07:08:25;21.80;58.20
30244;DHT22;64022;53.652;9.792;2024-02-26T07:10:52;21.80;55.50
30244;DHT22;64022;53.652;9.792;2024-02-26T07:13:18;21.50;53.00
30244;DHT22;64022;53.652;9.792;2024-02-26T07:15:45;21.20;53.50
30244;DHT22;64022;53.652;9.792;2024-02-26T07:18:10;21.10;54.20
30244;DHT22;64022;53.652;9.792;2024-02-26T07:20:36;21.10;54.70
30244;DHT22;64022;53.652;9.792;2024-02-26T07:23:02;21.20;55.00
30244;DHT22;64022;53.652;9.792;2024-02-26T07:25:30;21.20;55.20
30244;DHT22;64022;53.652;9.792;2024-02-26T07:27:56;21.20;55.40
30244;DHT22;64022;53.652;9.792;2024-02-26T07:30:22;21.30;55.60
30244;DHT22;64022;53.652;9.792;2024-02-26T07:32:49;21.30;55.60
30244;DHT22;64022;53.652;9.792;2024-02-26T07:35:15;21.40;55.80
30244;DHT22;64022;53.652;9.792;2024-02-26T07:37:46;21.40;55.80
30244;DHT22;64022;53.652;9.792;2024-02-26T07:40:14;21.40;55.90
30244;DHT22;64022;53.652;9.792;2024-02-26T07:42:40;21.40;55.90
30244;DHT22;64022;53.652;9.792;2024-02-26T07:45:06;21.50;56.00
30244;DHT22;64022;53.652;9.792;2024-02-26T07:47:37;21.50;56.00
30244;DHT22;64022;53.652;9.792;2024-02-26T07:50:08;21.50;56.00
30244;DHT22;64022;53.652;9.792;2024-02-26T07:52:36;21.50;56.10
30244;DHT22;64022;53.652;9.792;2024-02-26T07:55:05;21.50;56.10
30244;DHT22;64022;53.652;9.792;2024-02-26T07:57:32;21.50;56.10
30244;DHT22;64022;53.652;9.792;2024-02-26T07:59:59;21.50;56.10
30244;DHT22;64022;53.652;9.792;2024-02-26T08:02:25;21.50;56.10
30244;DHT22;64022;53.652;9.792;2024-02-26T08:04:51;21.50;56.10
30244;DHT22;64022;53.652;9.792;2024-02-26T08:07:18;21.50;56.10
30244;DHT22;64022;53.652;9.792;2024-02-26T08:09:48;21.50;56.10
30244;DHT22;64022;53.652;9.792;2024-02-26T08:12:15;21.50;56.10
30244;DHT22;64022;53.652;9.792;2024-02-26T08:14:41;21.60;56.20
30244;DHT22;64022;53.652;9.792;2024-02-26T08:17:08;21.60;56.20
30244;DHT22;64022;53.652;9.792;2024-02-26T08:19:34;21.60;56.20
30244;DHT22;64022;53.652;9.792;2024-02-26T08:22:03;21.60;56.20
30244;DHT22;64022;53.652;9.792;2024-02-26T08:24:31;21.60;56.20
30244;DHT22;64022;53.652;9.792;2024-02-26T08:27:01;21.60;56.20
30244;DHT22;64022;53.652;9.792;2024-02-26T08:29:29;21.60;56.70
30244;DHT22;64022;53.652;9.792;2024-02-26T08:32:00;21.60;56.20
30244;DHT22;64022;53.652;9.792;2024-02-26T08:34:31;21.60;56.20
30244;DHT22;64022;53.652;9.792;2024-02-26T08:36:58;21.60;56.30
30244;DHT22;64022;53.652;9.792;2024-02-26T08:39:24;21.60;56.20
30244;DHT22;64022;53.652;9.792;2024-02-26T08:41:57;21.60;56.30
30244;DHT22;64022;53.652;9.792;2024-02-26T08:44:23;21.60;56.20
30244;DHT22;64022;53.652;9.792;2024-02-26T08:46:53;21.60;56.30
30244;DHT22;64022;53.652;9.792;2024-02-26T08:49:19;21.60;56.20
30244;DHT22;64022;53.652;9.792;2024-02-26T08:51:46;21.60;56.20
30244;DHT22;64022;53.652;9.792;2024-02-26T08:54:14;21.60;56.30
30244;DHT22;64022;53.652;9.792;2024-02-26T08:56:40;21.60;56.30
30244;DHT22;64022;53.652;9.792;2024-02-26T08:59:06;21.70;56.30
30244;DHT22;64022;53.652;9.792;2024-02-26T09:01:34;21.70;56.30
30244;DHT22;64022;53.652;9.792;2024-02-26T09:04:00;21.70;56.30
30244;DHT22;64022;53.652;9.792;2024-02-26T09:06:26;21.60;56.30
30244;DHT22;64022;53.652;9.792;2024-02-26T09:08:53;21.60;56.30
30244;DHT22;64022;53.652;9.792;2024-02-26T09:11:21;21.70;56.30
30244;DHT22;64022;53.652;9.792;2024-02-26T09:13:50;21.70;56.30
30244;DHT22;64022;53.652;9.792;2024-02-26T09:16:18;21.70;56.30
30244;DHT22;64022;53.652;9.792;2024-02-26T09:18:44;21.70;56.30
30244;DHT22;64022;53.652;9.792;2024-02-26T09:21:11;21.70;56.30
30244;DHT22;64022;53.652;9.792;2024-02-26T09:23:37;21.70;56.30
30244;DHT22;64022;53.652;9.792;2024-02-26T09:26:04;21.60;56.20
30244;DHT22;64022;53.652;9.792;2024-02-26T09:28:31;21.70;56.30
30244;DHT22;64022;53.652;9.792;2024-02-26T09:31:01;21.70;56.30
30244;DHT22;64022;53.652;9.792;2024-02-26T09:33:29;21.70;56.30
30244;DHT22;64022;53.652;9.792;2024-02-26T09:35:55;21.70;56.30
30244;DHT22;64022;53.652;9.792;2024-02-26T09:38:22;21.70;56.30
30244;DHT22;64022;53.652;9.792;2024-02-26T09:40:50;21.70;56.30
30244;DHT22;64022;53.652;9.792;2024-02-26T09:43:16;21.70;56.30
30244;DHT22;64022;53.652;9.792;2024-02-26T09:45:42;21.70;56.30
30244;DHT22;64022;53.652;9.792;2024-02-26T09:48:09;21.70;56.30
30244;DHT22;64022;53.652;9.792;2024-02-26T09:50:37;21.70;56.30
30244;DHT22;64022;53.652;9.792;2024-02-26T09:53:03;21.70;56.30
30244;DHT22;64022;53.652;9.792;2024-02-26T09:55:32;21.70;56.30
30244;DHT22;64022;53.652;9.792;2024-02-26T09:57:59;21.70;56.30
30244;DHT22;64022;53.652;9.792;2024-02-26T10:00:26;21.70;56.30
30244;DHT22;64022;53.652;9.792;2024-02-26T10:02:56;21.70;56.30
30244;DHT22;64022;53.652;9.792;2024-02-26T10:05:23;21.70;56.30
30244;DHT22;64022;53.652;9.792;2024-02-26T10:07:58;21.70;56.30
30244;DHT22;64022;53.652;9.792;2024-02-26T10:10:30;21.70;56.50
30244;DHT22;64022;53.652;9.792;2024-02-26T10:12:59;21.70;56.30
30244;DHT22;64022;53.652;9.792;2024-02-26T10:15:25;21.70;56.30
30244;DHT22;64022;53.652;9.792;2024-02-26T10:17:51;21.70;56.80
30244;DHT22;64022;53.652;9.792;2024-02-26T10:20:20;21.70;56.30
30244;DHT22;64022;53.652;9.792;2024-02-26T10:22:49;21.70;56.40
30244;DHT22;64022;53.652;9.792;2024-02-26T10:25:16;21.70;56.30
30244;DHT22;64022;53.652;9.792;2024-02-26T10:27:45;21.70;56.40
30244;DHT22;64022;53.652;9.792;2024-02-26T10:30:17;21.70;56.40
30244;DHT22;64022;53.652;9.792;2024-02-26T10:32:48;21.70;56.40
30244;DHT22;64022;53.652;9.792;2024-02-26T10:35:18;21.70;56.40
30244;DHT22;64022;53.652;9.792;2024-02-26T10:37:46;21.70;56.40
30244;DHT22;64022;53.652;9.792;2024-02-26T10:40:12;21.80;56.40
30244;DHT22;64022;53.652;9.792;2024-02-26T10:42:43;21.80;56.40
30244;DHT22;64022;53.652;9.792;2024-02-26T10:45:11;21.80;56.40
30244;DHT22;64022;53.652;9.792;2024-02-26T10:47:37;21.70;56.30
30244;DHT22;64022;53.652;9.792;2024-02-26T10:50:06;21.80;56.40
30244;DHT22;64022;53.652;9.792;2024-02-26T10:52:33;21.80;56.40
30244;DHT22;64022;53.652;9.792;2024-02-26T10:55:00;21.80;56.40
30244;DHT22;64022;53.652;9.792;2024-02-26T10:57:29;21.70;56.30
30244;DHT22;64022;53.652;9.792;2024-02-26T10:59:57;21.80;56.40
30244;DHT22;64022;53.652;9.792;2024-02-26T11:02:24;21.70;56.30
30244;DHT22;64022;53.652;9.792;2024-02-26T11:04:50;21.80;56.40
30244;DHT22;64022;53.652;9.792;2024-02-26T11:07:16;21.80;56.40
30244;DHT22;64022;53.652;9.792;2024-02-26T11:09:44;21.80;56.40
30244;DHT22;64022;53.652;9.792;2024-02-26T11:12:12;21.80;56.30
30244;DHT22;64022;53.652;9.792;2024-02-26T11:14:40;21.70;56.30
30244;DHT22;64022;53.652;9.792;2024-02-26T11:17:09;21.80;56.30
30244;DHT22;64022;53.652;9.792;2024-02-26T11:19:37;21.80;56.30
30244;DHT22;64022;53.652;9.792;2024-02-26T11:22:03;21.80;56.30
30244;DHT22;64022;53.652;9.792;2024-02-26T11:24:30;21.70;56.20
30244;DHT22;64022;53.652;9.792;2024-02-26T11:26:58;21.70;56.20
30244;DHT22;64022;53.652;9.792;2024-02-26T11:29:28;21.70;56.20
30244;DHT22;64022;53.652;9.792;2024-02-26T11:31:55;21.80;56.30
30244;DHT22;64022;53.652;9.792;2024-02-26T11:34:22;21.80;56.30
30244;DHT22;64022;53.652;9.792;2024-02-26T11:36:49;21.80;56.30
30244;DHT22;64022;53.652;9.792;2024-02-26T11:39:15;21.70;56.20
30244;DHT22;64022;53.652;9.792;2024-02-26T11:41:43;21.70;56.30
30244;DHT22;64022;53.652;9.792;2024-02-26T11:44:10;21.70;56.30
30244;DHT22;64022;53.652;9.792;2024-02-26T11:46:39;21.80;56.30
30244;DHT22;64022;53.652;9.792;2024-02-26T11:51:52;21.70;56.20
30244;DHT22;64022;53.652;9.792;2024-02-26T11:57:04;21.80;56.30
30244;DHT22;64022;53.652;9.792;2024-02-26T11:59:39;21.70;56.20
30244;DHT22;64022;53.652;9.792;2024-02-26T12:02:07;21.80;56.20
30244;DHT22;64022;53.652;9.792;2024-02-26T12:04:33;21.70;56.20
30244;DHT22;64022;53.652;9.792;2024-02-26T12:07:01;21.80;56.20
30244;DHT22;64022;53.652;9.792;2024-02-26T12:09:41;21.80;56.20
30244;DHT22;64022;53.652;9.792;2024-02-26T12:12:08;21.80;56.20
30244;DHT22;64022;53.652;9.792;2024-02-26T12:14:39;21.80;56.20
30244;DHT22;64022;53.652;9.792;2024-02-26T12:17:05;21.80;56.30
30244;DHT22;64022;53.652;9.792;2024-02-26T12:19:35;21.70;56.20
30244;DHT22;64022;53.652;9.792;2024-02-26T12:22:06;21.70;56.20
30244;DHT22;64022;53.652;9.792;2024-02-26T12:24:32;21.70;56.20
30244;DHT22;64022;53.652;9.792;2024-02-26T12:26:58;21.70;56.20
30244;DHT22;64022;53.652;9.792;2024-02-26T12:29:27;21.70;56.20
30244;DHT22;64022;53.652;9.792;2024-02-26T12:31:53;21.70;56.20
30244;DHT22;64022;53.652;9.792;2024-02-26T12:34:18;21.70;56.20
30244;DHT22;64022;53.652;9.792;2024-02-26T12:36:45;21.70;56.20
30244;DHT22;64022;53.652;9.792;2024-02-26T12:39:11;21.70;56.20
30244;DHT22;64022;53.652;9.792;2024-02-26T12:41:39;21.70;56.20
30244;DHT22;64022;53.652;9.792;2024-02-26T12:44:07;21.70;56.20
30244;DHT22;64022;53.652;9.792;2024-02-26T12:46:34;21.70;56.20
30244;DHT22;64022;53.652;9.792;2024-02-26T12:49:00;21.70;56.20
30244;DHT22;64022;53.652;9.792;2024-02-26T12:51:27;21.70;56.20
30244;DHT22;64022;53.652;9.792;2024-02-26T12:53:54;21.70;56.20
30244;DHT22;64022;53.652;9.792;2024-02-26T12:56:21;21.70;56.20
30244;DHT22;64022;53.652;9.792;2024-02-26T12:58:49;21.70;56.20
30244;DHT22;64022;53.652;9.792;2024-02-26T13:01:17;21.70;56.20
30244;DHT22;64022;53.652;9.792;2024-02-26T13:03:43;21.70;56.80
30244;DHT22;64022;53.652;9.792;2024-02-26T13:06:09;21.70;56.20
30244;DHT22;64022;53.652;9.792;2024-02-26T13:08:35;21.70;56.20
30244;DHT22;64022;53.652;9.792;2024-02-26T13:11:02;21.70;56.30
30244;DHT22;64022;53.652;9.792;2024-02-26T13:13:29;21.70;56.30
30244;DHT22;64022;53.652;9.792;2024-02-26T13:16:03;21.70;56.80
30244;DHT22;64022;53.652;9.792;2024-02-26T13:18:31;21.70;56.20
30244;DHT22;64022;53.652;9.792;2024-02-26T13:21:10;21.70;56.30
30244;DHT22;64022;53.652;9.792;2024-02-26T13:23:37;21.70;56.20
30244;DHT22;64022;53.652;9.792;2024-02-26T13:26:04;21.70;56.20
30244;DHT22;64022;53.652;9.792;2024-02-26T13:28:30;21.70;56.20
30244;DHT22;64022;53.652;9.792;2024-02-26T13:30:58;21.70;56.30
30244;DHT22;64022;53.652;9.792;2024-02-26T13:33:30;21.70;56.20
30244;DHT22;64022;53.652;9.792;2024-02-26T13:35:58;21.70;56.30
30244;DHT22;64022;53.652;9.792;2024-02-26T13:38:25;21.70;56.20
30244;DHT22;64022;53.652;9.792;2024-02-26T13:40:53;21.70;56.30
30244;DHT22;64022;53.652;9.792;2024-02-26T13:43:20;21.70;56.20
30244;DHT22;64022;53.652;9.792;2024-02-26T13:45:47;21.70;56.20
30244;DHT22;64022;53.652;9.792;2024-02-26T13:48:13;21.70;56.20
30244;DHT22;64022;53.652;9.792;2024-02-26T13:50:42;21.70;56.20
30244;DHT22;64022;53.652;9.792;2024-02-26T13:53:12;21.70;56.20
30244;DHT22;64022;53.652;9.792;2024-02-26T13:55:39;21.70;56.20
30244;DHT22;64022;53.652;9.792;2024-02-26T13:58:08;21.70;56.20
30244;DHT22;64022;53.652;9.792;2024-02-26T14:00:36;21.70;56.20
30244;DHT22;64022;53.652;9.792;2024-02-26T14:03:02;21.70;56.20
30244;DHT22;64022;53.652;9.792;2024-02-26T14:05:32;21.70;56.20
30244;DHT22;64022;53.652;9.792;2024-02-26T14:07:59;21.70;56.20
30244;DHT22;64022;53.652;9.792;2024-02-26T14:10:26;21.70;56.20
30244;DHT22;64022;53.652;9.792;2024-02-26T14:12:52;21.70;56.20
30244;DHT22;64022;53.652;9.792;2024-02-26T14:15:18;21.70;56.20
30244;DHT22;64022;53.652;9.792;2024-02-26T14:17:44;21.70;56.20
30244;DHT22;64022;53.652;9.792;2024-02-26T14:20:12;21.70;56.20
30244;DHT22;64022;53.652;9.792;2024-02-26T14:22:45;21.70;56.20
30244;DHT22;64022;53.652;9.792;2024-02-26T14:25:11;21.70;56.20
30244;DHT22;64022;53.652;9.792;2024-02-26T14:27:37;21.70;56.20
30244;DHT22;64022;53.652;9.792;2024-02-26T14:30:04;21.70;56.20
30244;DHT22;64022;53.652;9.792;2024-02-26T14:32:31;21.70;56.10
30244;DHT22;64022;53.652;9.792;2024-02-26T14:35:06;21.70;56.10
30244;DHT22;64022;53.652;9.792;2024-02-26T14:37:32;21.70;56.10
30244;DHT22;64022;53.652;9.792;2024-02-26T14:39:58;21.70;56.10
30244;DHT22;64022;53.652;9.792;2024-02-26T14:42:24;21.70;56.10
30244;DHT22;64022;53.652;9.792;2024-02-26T14:44:52;21.70;56.10
30244;DHT22;64022;53.652;9.792;2024-02-26T14:47:18;21.70;56.10
30244;DHT22;64022;53.652;9.792;2024-02-26T14:49:45;21.70;56.20
30244;DHT22;64022;53.652;9.792;2024-02-26T14:52:15;21.70;56.20
30244;DHT22;64022;53.652;9.792;2024-02-26T14:54:42;21.60;56.10
30244;DHT22;64022;53.652;9.792;2024-02-26T14:57:08;21.70;56.10
30244;DHT22;64022;53.652;9.792;2024-02-26T14:59:35;21.70;56.60
30244;DHT22;64022;53.652;9.792;2024-02-26T15:02:05;21.70;56.10
30244;DHT22;64022;53.652;9.792;2024-02-26T15:04:32;21.70;56.10
30244;DHT22;64022;53.652;9.792;2024-02-26T15:06:58;21.60;56.10
30244;DHT22;64022;53.652;9.792;2024-02-26T15:09:26;21.70;56.20
30244;DHT22;64022;53.652;9.792;2024-02-26T15:11:56;21.70;56.10
30244;DHT22;64022;53.652;9.792;2024-02-26T15:14:23;21.70;56.10
30244;DHT22;64022;53.652;9.792;2024-02-26T15:16:50;21.60;56.10
30244;DHT22;64022;53.652;9.792;2024-02-26T15:19:17;21.70;56.10
30244;DHT22;64022;53.652;9.792;2024-02-26T15:21:45;21.60;56.10
30244;DHT22;64022;53.652;9.792;2024-02-26T15:24:12;21.70;56.10
30244;DHT22;64022;53.652;9.792;2024-02-26T15:26:38;21.60;56.10
30244;DHT22;64022;53.652;9.792;2024-02-26T15:29:07;21.60;56.10
30244;DHT22;64022;53.652;9.792;2024-02-26T15:31:38;21.70;56.10
30244;DHT22;64022;53.652;9.792;2024-02-26T15:34:05;21.70;56.20
30244;DHT22;64022;53.652;9.792;2024-02-26T15:36:31;21.70;56.10